createdAt,value
2019-02-19T00:02:20.900Z,17.98
2019-02-19T00:04:48.636Z,17.96
2019-02-19T00:07:16.646Z,18.10
2019-02-19T00:09:44.407Z,18.06
2019-02-19T00:12:12.151Z,18.07
2019-02-19T00:14:39.884Z,18.05
2019-02-19T00:17:07.678Z,18.04
2019-02-19T00:19:36.529Z,18.00
2019-02-19T00:22:04.535Z,17.85
2019-02-19T00:24:32.327Z,17.90
2019-02-19T00:27:00.026Z,17.80
2019-02-19T00:29:27.810Z,17.79
2019-02-19T00:31:55.569Z,17.84
2019-02-19T00:34:23.330Z,17.85
2019-02-19T00:36:52.715Z,17.87
2019-02-19T00:39:24.402Z,17.88
2019-02-19T00:41:52.150Z,17.79
2019-02-19T00:44:20.016Z,17.76
2019-02-19T00:46:47.764Z,17.89
2019-02-19T00:49:15.599Z,17.80
2019-02-19T00:51:43.356Z,17.80
2019-02-19T00:54:11.159Z,17.63
2019-02-19T00:56:38.986Z,17.66
2019-02-19T00:59:06.694Z,17.74
2019-02-19T01:01:34.442Z,17.78
2019-02-19T01:04:02.263Z,17.74
2019-02-19T01:06:29.991Z,17.69
2019-02-19T01:21:36.674Z,17.77
2019-02-19T01:24:04.445Z,17.78
2019-02-19T01:26:32.206Z,17.69
2019-02-19T01:28:59.954Z,17.66
2019-02-19T01:31:27.934Z,17.51
2019-02-19T01:33:55.626Z,17.67
2019-02-19T01:36:23.362Z,17.50
2019-02-19T01:38:51.190Z,17.44
2019-02-19T01:41:18.898Z,17.54
2019-02-19T01:43:46.706Z,17.60
2019-02-19T01:46:14.536Z,17.57
2019-02-19T01:48:42.290Z,17.45
2019-02-19T01:51:09.991Z,17.48
2019-02-19T01:53:37.705Z,17.53
2019-02-19T01:56:05.415Z,17.49
2019-02-19T01:58:33.134Z,17.43
2019-02-19T02:01:00.885Z,17.42
2019-02-19T02:03:28.666Z,17.53
2019-02-19T02:05:56.396Z,17.11
2019-02-19T02:08:24.207Z,17.02
2019-02-19T02:10:51.954Z,17.24
2019-02-19T02:13:19.702Z,17.28
2019-02-19T02:15:50.279Z,17.25
2019-02-19T02:18:18.019Z,17.33
2019-02-19T02:20:45.751Z,17.29
2019-02-19T02:23:13.566Z,17.26
2019-02-19T02:25:41.634Z,17.04
2019-02-19T02:28:09.354Z,17.25
2019-02-19T02:30:37.079Z,17.21
2019-02-19T02:33:04.930Z,17.23
2019-02-19T02:35:39.097Z,17.23
2019-02-19T02:38:07.191Z,17.34
2019-02-19T02:40:34.900Z,17.26
2019-02-19T02:43:02.645Z,17.14
2019-02-19T02:45:30.395Z,17.12
2019-02-19T02:47:58.481Z,17.20
2019-02-19T02:50:26.355Z,17.29
2019-02-19T02:52:54.108Z,17.19
2019-02-19T02:55:22.211Z,17.15
2019-02-19T02:57:49.982Z,17.13
2019-02-19T03:00:17.819Z,17.25
2019-02-19T03:02:45.627Z,17.15
2019-02-19T03:05:13.388Z,17.15
2019-02-19T03:07:48.142Z,17.10
2019-02-19T03:10:15.880Z,17.13
2019-02-19T03:13:03.076Z,17.15
2019-02-19T03:15:30.903Z,17.21
2019-02-19T03:17:58.616Z,17.33
2019-02-19T03:20:26.450Z,17.27
2019-02-19T03:22:54.204Z,17.22
2019-02-19T03:25:21.967Z,17.19
2019-02-19T03:27:49.724Z,17.33
2019-02-19T03:30:17.479Z,17.25
2019-02-19T03:32:45.256Z,17.21
2019-02-19T03:35:13.056Z,17.17
2019-02-19T03:37:40.876Z,17.10
2019-02-19T03:40:08.652Z,17.28
2019-02-19T03:42:36.446Z,17.12
2019-02-19T03:45:04.202Z,17.21
2019-02-19T03:47:41.899Z,17.19
2019-02-19T03:50:09.658Z,17.24
2019-02-19T03:52:37.383Z,17.19
2019-02-19T03:55:05.116Z,17.30
2019-02-19T03:57:32.834Z,17.18
2019-02-19T04:00:00.613Z,17.22
2019-02-19T04:02:28.333Z,17.32
2019-02-19T04:04:56.058Z,17.35
2019-02-19T04:07:23.844Z,17.40
2019-02-19T04:09:51.575Z,17.23
2019-02-19T04:12:19.301Z,17.33
2019-02-19T04:14:47.021Z,17.21
2019-02-19T04:17:14.779Z,17.29
2019-02-19T04:19:42.487Z,17.20
2019-02-19T04:22:10.223Z,17.14
2019-02-19T04:24:37.939Z,17.18
2019-02-19T04:27:10.962Z,17.20
2019-02-19T04:29:41.650Z,17.36
2019-02-19T04:32:09.439Z,17.24
2019-02-19T04:34:37.232Z,17.44
2019-02-19T04:37:04.978Z,17.37
2019-02-19T04:39:32.704Z,17.13
2019-02-19T04:42:00.470Z,17.42
2019-02-19T04:44:28.177Z,17.23
2019-02-19T04:46:55.904Z,17.18
2019-02-19T04:49:23.704Z,17.20
2019-02-19T04:51:51.471Z,17.18
2019-02-19T04:54:19.415Z,17.13
2019-02-19T04:56:47.163Z,17.07
2019-02-19T04:59:14.891Z,17.13
2019-02-19T05:01:42.636Z,17.11
2019-02-19T05:04:10.370Z,17.07
2019-02-19T05:06:48.611Z,17.31
2019-02-19T05:09:13.481Z,17.22
2019-02-19T05:11:41.014Z,17.31
2019-02-19T05:14:08.758Z,17.23
2019-02-19T05:16:40.757Z,17.17
2019-02-19T05:19:06.347Z,17.18
2019-02-19T05:21:34.198Z,17.07
2019-02-19T05:24:01.943Z,17.05
2019-02-19T05:26:29.740Z,17.07
2019-02-19T05:28:57.475Z,17.15
2019-02-19T05:31:25.199Z,17.09
2019-02-19T05:33:53.012Z,17.12
2019-02-19T05:36:20.746Z,17.11
2019-02-19T05:39:17.893Z,17.01
2019-02-19T05:41:45.619Z,17.15
2019-02-19T05:44:13.362Z,17.07
2019-02-19T05:46:49.391Z,17.07
2019-02-19T05:49:10.659Z,17.00
2019-02-19T05:51:38.390Z,17.12
2019-02-19T05:54:06.139Z,17.08
2019-02-19T05:56:33.965Z,17.07
2019-02-19T05:59:01.689Z,17.12
2019-02-19T06:01:29.399Z,17.21
2019-02-19T06:03:57.206Z,17.27
2019-02-19T06:06:26.058Z,17.23
2019-02-19T06:08:54.031Z,17.28
2019-02-19T06:11:21.836Z,17.15
2019-02-19T06:13:49.555Z,17.16
2019-02-19T06:16:25.921Z,17.24
2019-02-19T06:18:58.113Z,17.13
2019-02-19T06:21:25.843Z,17.24
2019-02-19T06:23:54.579Z,17.23
2019-02-19T06:26:22.263Z,17.14
2019-02-19T06:28:50.018Z,17.25
2019-02-19T06:31:17.722Z,17.21
2019-02-19T06:33:45.491Z,17.22
2019-02-19T06:36:14.703Z,17.29
2019-02-19T06:38:42.452Z,17.26
2019-02-19T06:41:10.227Z,17.29
2019-02-19T06:43:38.133Z,17.33
2019-02-19T06:46:05.879Z,17.34
2019-02-19T06:48:33.597Z,17.45
2019-02-19T06:51:01.346Z,17.36
2019-02-19T06:53:29.070Z,17.30
2019-02-19T06:56:07.791Z,17.38
2019-02-19T06:58:31.198Z,17.45
2019-02-19T07:00:58.924Z,17.42
2019-02-19T07:03:37.236Z,17.41
2019-02-19T07:06:04.948Z,17.38
2019-02-19T07:08:32.690Z,17.41
2019-02-19T07:11:00.438Z,17.39
2019-02-19T07:13:28.265Z,17.36
2019-02-19T07:15:56.052Z,17.40
2019-02-19T07:18:23.783Z,17.35
2019-02-19T07:20:51.514Z,17.41
2019-02-19T07:23:19.293Z,17.46
2019-02-19T07:25:47.031Z,17.44
2019-02-19T07:28:14.855Z,17.49
2019-02-19T07:30:42.568Z,17.37
2019-02-19T07:33:11.979Z,17.45
2019-02-19T07:35:40.901Z,17.52
2019-02-19T07:38:10.814Z,17.50
2019-02-19T07:40:38.518Z,17.53
2019-02-19T07:43:06.257Z,17.49
2019-02-19T07:45:33.990Z,17.51
2019-02-19T07:48:01.722Z,17.52
2019-02-19T07:50:29.438Z,17.54
2019-02-19T07:52:57.163Z,17.57
2019-02-19T07:55:24.982Z,17.52
2019-02-19T07:57:52.699Z,17.56
2019-02-19T08:00:20.401Z,17.50
2019-02-19T08:02:48.174Z,17.54
2019-02-19T08:05:15.901Z,17.53
2019-02-19T08:07:43.619Z,17.54
2019-02-19T08:10:11.492Z,17.54
2019-02-19T08:12:39.280Z,17.42
2019-02-19T08:15:07.252Z,17.55
2019-02-19T08:17:47.191Z,17.66
2019-02-19T08:20:15.367Z,17.66
2019-02-19T08:22:38.544Z,17.69
2019-02-19T08:25:06.312Z,17.62
2019-02-19T08:27:34.039Z,17.55
2019-02-19T08:30:01.845Z,17.56
2019-02-19T08:32:29.666Z,17.67
2019-02-19T08:34:57.428Z,17.57
2019-02-19T08:37:25.262Z,17.59
2019-02-19T08:39:52.985Z,17.58
2019-02-19T08:42:20.688Z,17.56
2019-02-19T08:44:48.428Z,17.61
2019-02-19T08:47:16.166Z,17.62
2019-02-19T08:49:43.892Z,17.67
2019-02-19T08:52:11.659Z,17.60
2019-02-19T08:54:39.548Z,17.63
2019-02-19T08:57:08.416Z,17.60
2019-02-19T08:59:39.856Z,17.63
2019-02-19T09:02:07.612Z,17.67
2019-02-19T09:04:35.354Z,17.76
2019-02-19T09:07:03.200Z,17.68
2019-02-19T09:09:30.914Z,17.55
2019-02-19T09:11:59.013Z,17.59
2019-02-19T09:14:26.763Z,17.69
2019-02-19T09:16:54.500Z,17.62
2019-02-19T09:19:22.251Z,17.59
2019-02-19T09:21:50.021Z,17.54
2019-02-19T09:24:17.780Z,17.66
2019-02-19T09:26:45.595Z,17.64
2019-02-19T09:29:13.345Z,17.63
2019-02-19T09:31:41.061Z,17.48
2019-02-19T09:34:08.796Z,17.59
2019-02-19T09:36:36.514Z,17.60
2019-02-19T09:39:13.939Z,17.44
2019-02-19T09:41:41.700Z,17.60
2019-02-19T09:44:09.783Z,17.58
2019-02-19T09:46:37.531Z,17.58
2019-02-19T09:49:05.316Z,17.55
2019-02-19T09:51:33.159Z,17.63
2019-02-19T09:54:00.926Z,17.66
2019-02-19T09:56:29.014Z,17.55
2019-02-19T09:58:56.727Z,17.49
2019-02-19T10:01:24.442Z,17.56
2019-02-19T10:03:52.159Z,17.53
2019-02-19T10:06:19.905Z,17.81
2019-02-19T10:08:47.626Z,17.60
2019-02-19T10:11:15.351Z,17.69
2019-02-19T10:13:43.320Z,17.69
2019-02-19T10:16:23.135Z,17.54
2019-02-19T10:18:47.223Z,17.63
2019-02-19T10:21:12.268Z,17.61
2019-02-19T10:23:39.991Z,17.74
2019-02-19T10:26:07.704Z,17.64
2019-02-19T10:28:35.418Z,17.69
2019-02-19T10:31:03.129Z,17.67
2019-02-19T10:33:31.123Z,17.71
2019-02-19T10:35:58.899Z,17.77
2019-02-19T10:38:27.008Z,17.90
2019-02-19T10:40:54.844Z,17.71
2019-02-19T10:43:23.509Z,17.68
2019-02-19T10:45:51.344Z,17.58
2019-02-19T10:48:19.465Z,17.64
2019-02-19T10:50:47.395Z,17.76
2019-02-19T10:53:15.118Z,17.67
2019-02-19T10:55:51.455Z,17.61
2019-02-19T10:58:22.852Z,17.59
2019-02-19T11:00:48.670Z,17.70
2019-02-19T11:03:16.398Z,17.84
2019-02-19T11:05:44.122Z,17.75
2019-02-19T11:08:11.855Z,17.79
2019-02-19T11:10:39.699Z,17.86
2019-02-19T11:13:07.415Z,17.72
2019-02-19T11:15:35.143Z,17.78
2019-02-19T11:18:03.791Z,17.86
2019-02-19T11:20:31.786Z,17.87
2019-02-19T11:22:59.501Z,17.88
2019-02-19T11:25:27.231Z,17.98
2019-02-19T11:27:54.945Z,18.02
2019-02-19T11:30:22.666Z,17.92
2019-02-19T11:32:50.366Z,17.92
2019-02-19T11:35:29.646Z,18.12
2019-02-19T11:37:57.433Z,17.99
2019-02-19T11:40:25.165Z,18.01
2019-02-19T11:42:52.890Z,17.95
2019-02-19T11:45:20.622Z,18.09
2019-02-19T11:47:48.426Z,18.13
2019-02-19T11:50:16.179Z,17.99
2019-02-19T11:52:43.888Z,18.12
2019-02-19T11:55:12.088Z,18.27
2019-02-19T11:57:39.820Z,18.00
2019-02-19T12:00:08.975Z,17.95
2019-02-19T12:02:36.778Z,17.92
2019-02-19T12:05:04.703Z,17.98
2019-02-19T12:07:32.421Z,17.99
2019-02-19T12:10:00.275Z,18.09
2019-02-19T12:12:39.700Z,18.12
2019-02-19T12:15:00.525Z,18.19
2019-02-19T12:17:28.477Z,18.06
2019-02-19T12:19:56.299Z,18.03
2019-02-19T12:22:24.051Z,18.08
2019-02-19T12:24:51.766Z,18.08
2019-02-19T12:27:19.551Z,18.05
2019-02-19T12:29:47.317Z,18.06
2019-02-19T12:32:15.130Z,18.11
2019-02-19T12:34:42.863Z,18.22
2019-02-19T12:37:10.569Z,18.06
2019-02-19T12:39:38.275Z,18.21
2019-02-19T12:42:06.238Z,18.38
2019-02-19T12:44:33.986Z,18.13
2019-02-19T12:47:01.790Z,18.10
2019-02-19T12:49:29.590Z,18.16
2019-02-19T12:52:04.721Z,18.24
2019-02-19T12:54:32.522Z,18.19
2019-02-19T12:57:00.271Z,18.09
2019-02-19T12:59:27.979Z,18.14
2019-02-19T13:01:55.703Z,18.35
2019-02-19T13:04:23.502Z,18.20
2019-02-19T13:06:51.255Z,18.08
2019-02-19T13:09:18.986Z,17.99
2019-02-19T13:11:46.753Z,18.10
2019-02-19T13:14:14.465Z,18.07
2019-02-19T13:16:42.195Z,18.05
2019-02-19T13:19:09.932Z,18.01
2019-02-19T13:21:37.667Z,17.94
2019-02-19T13:24:05.434Z,17.77
2019-02-19T13:26:33.179Z,17.83
2019-02-19T13:29:01.284Z,18.01
2019-02-19T13:31:38.099Z,18.04
2019-02-19T13:34:05.854Z,17.96
2019-02-19T13:36:33.619Z,18.04
2019-02-19T13:39:01.399Z,18.01
2019-02-19T13:41:29.246Z,18.01
2019-02-19T13:43:56.969Z,18.00
2019-02-19T13:46:24.702Z,18.08
2019-02-19T13:48:52.438Z,18.08
2019-02-19T13:51:20.159Z,18.06
2019-02-19T13:53:53.912Z,18.05
2019-02-19T13:56:21.655Z,18.16
2019-02-19T13:58:49.379Z,18.08
2019-02-19T14:01:17.201Z,18.05
2019-02-19T14:03:55.663Z,18.16
2019-02-19T14:06:23.483Z,18.19
2019-02-19T14:08:51.219Z,18.16
2019-02-19T14:11:18.989Z,18.11
2019-02-19T14:13:53.739Z,18.13
2019-02-19T14:16:29.062Z,18.10
2019-02-19T14:19:34.207Z,18.15
2019-02-19T14:22:16.527Z,18.12
2019-02-19T14:25:02.288Z,18.14
2019-02-19T14:27:57.071Z,18.01
2019-02-19T14:30:42.872Z,18.14
2019-02-19T14:33:25.074Z,18.17
2019-02-19T14:36:14.795Z,18.16
2019-02-19T14:38:53.733Z,18.19
2019-02-19T14:41:44.654Z,18.13
2019-02-19T14:44:40.926Z,18.19
2019-02-19T14:47:26.726Z,18.21
2019-02-19T14:50:16.722Z,18.11
2019-02-19T14:53:06.689Z,18.20
2019-02-19T14:55:52.126Z,18.32
2019-02-19T14:58:41.591Z,18.20
2019-02-19T15:01:28.459Z,18.08
2019-02-19T15:04:27.551Z,18.17
2019-02-19T15:07:31.551Z,18.15
2019-02-19T15:10:30.760Z,18.08
2019-02-19T15:16:05.896Z,18.21
2019-02-19T15:18:43.590Z,18.12
2019-02-19T15:21:29.113Z,18.15
2019-02-19T15:24:34.259Z,18.29
2019-02-19T15:27:20.272Z,18.27
2019-02-19T15:30:09.714Z,18.50
2019-02-19T15:32:55.385Z,18.58
2019-02-19T15:35:51.218Z,18.21
2019-02-19T15:38:41.252Z,18.15
2019-02-19T15:41:34.948Z,18.21
2019-02-19T15:47:21.209Z,18.01
2019-02-19T15:50:13.267Z,18.23
2019-02-19T15:53:11.123Z,18.29
2019-02-19T15:55:57.237Z,18.12
2019-02-19T15:58:55.948Z,18.13
2019-02-19T16:01:48.615Z,18.27
2019-02-19T16:04:51.236Z,18.14
2019-02-19T16:07:22.893Z,18.17
2019-02-19T16:09:59.123Z,18.03
2019-02-19T16:12:43.809Z,17.99
2019-02-19T16:15:40.064Z,17.95
2019-02-19T16:18:12.788Z,17.93
2019-02-19T16:21:12.132Z,18.05
2019-02-19T16:24:02.471Z,17.90
2019-02-19T16:26:40.531Z,17.79
2019-02-19T16:29:26.231Z,17.88
2019-02-19T16:32:29.645Z,17.90
2019-02-19T16:35:16.860Z,17.81
2019-02-19T16:37:49.943Z,17.83
2019-02-19T16:40:46.372Z,17.90
2019-02-19T16:43:32.081Z,17.86
2019-02-19T16:46:11.626Z,17.95
2019-02-19T16:49:09.494Z,17.91
2019-02-19T16:51:51.014Z,18.24
2019-02-19T16:54:29.830Z,18.27
2019-02-19T16:57:21.016Z,18.28
2019-02-19T17:00:19.791Z,17.40
2019-02-19T17:03:22.041Z,17.84
2019-02-19T17:06:30.157Z,17.82
2019-02-19T17:09:31.029Z,17.86
2019-02-19T17:12:09.115Z,17.80
2019-02-19T17:14:57.907Z,17.92
2019-02-19T17:17:35.933Z,17.68
2019-02-19T17:20:42.968Z,17.83
2019-02-19T17:23:29.001Z,17.78
2019-02-19T17:26:22.427Z,17.84
2019-02-19T17:29:08.141Z,17.80
2019-02-19T17:31:58.077Z,17.72
2019-02-19T17:34:44.287Z,17.89
2019-02-19T17:37:26.016Z,17.88
2019-02-19T17:40:14.363Z,17.85
2019-02-19T17:43:06.181Z,18.05
2019-02-19T17:46:02.168Z,17.92
2019-02-19T17:48:44.210Z,18.00
2019-02-19T17:51:20.931Z,17.99
2019-02-19T17:54:15.339Z,18.06
2019-02-19T17:57:02.740Z,17.93
2019-02-19T17:59:54.956Z,17.87
2019-02-19T18:02:40.869Z,17.94
2019-02-19T18:05:21.856Z,17.94
2019-02-19T18:08:21.030Z,17.89
2019-02-19T18:11:06.559Z,17.80
2019-02-19T18:14:01.026Z,17.89
2019-02-19T18:16:47.885Z,17.91
2019-02-19T18:19:15.696Z,17.94
2019-02-19T18:21:43.767Z,18.29
2019-02-19T18:24:11.648Z,18.32
2019-02-19T18:26:44.808Z,18.03
2019-02-19T18:29:12.675Z,18.09
2019-02-19T18:31:40.431Z,17.82
2019-02-19T18:34:08.257Z,17.91
2019-02-19T18:36:40.853Z,18.17
2019-02-19T18:39:08.635Z,18.14
2019-02-19T18:41:36.429Z,17.89
2019-02-19T18:44:18.211Z,17.68
2019-02-19T18:46:46.227Z,17.80
2019-02-19T18:49:27.586Z,17.97
2019-02-19T18:52:00.861Z,18.43
2019-02-19T18:54:28.711Z,18.27
2019-02-19T18:56:56.454Z,18.33
2019-02-19T18:59:24.575Z,17.95
2019-02-19T19:01:52.497Z,17.74
2019-02-19T19:04:20.328Z,17.72
2019-02-19T19:06:48.290Z,17.73
2019-02-19T19:09:27.190Z,17.89
2019-02-19T19:12:14.177Z,17.77
2019-02-19T19:14:42.580Z,17.80
2019-02-19T19:17:10.371Z,17.79
2019-02-19T19:19:38.103Z,17.92
2019-02-19T19:22:05.811Z,17.98
2019-02-19T19:24:33.929Z,17.93
2019-02-19T19:27:01.804Z,17.82
2019-02-19T19:29:29.609Z,17.88
2019-02-19T19:31:57.787Z,17.93
2019-02-19T19:34:35.569Z,17.80
2019-02-19T19:37:03.835Z,17.84
2019-02-19T19:39:31.663Z,17.87
2019-02-19T19:41:59.647Z,17.87
2019-02-19T19:44:29.594Z,17.78
2019-02-19T19:46:57.349Z,17.78
2019-02-19T19:49:25.166Z,17.76
2019-02-19T19:51:53.130Z,17.65
2019-02-19T19:54:20.887Z,17.87
2019-02-19T19:56:48.656Z,17.95
2019-02-19T19:59:16.441Z,18.37
2019-02-19T20:01:44.205Z,18.36
2019-02-19T20:04:12.066Z,17.89
2019-02-19T20:06:39.915Z,18.13
2019-02-19T20:09:07.676Z,17.79
2019-02-19T20:11:36.790Z,17.75
2019-02-19T20:14:15.799Z,17.80
2019-02-19T20:16:45.594Z,17.70
2019-02-19T20:19:13.451Z,17.98
2019-02-19T20:21:41.250Z,18.19
2019-02-19T20:24:08.997Z,18.20
2019-02-19T20:26:36.802Z,17.99
2019-02-19T20:29:04.551Z,17.90
2019-02-19T20:31:32.335Z,17.89
2019-02-19T20:34:00.146Z,17.82
2019-02-19T20:36:29.009Z,17.98
2019-02-19T20:38:57.137Z,17.89
2019-02-19T20:41:25.044Z,17.80
2019-02-19T20:43:52.807Z,18.29
2019-02-19T20:46:20.690Z,18.05
2019-02-19T20:48:56.898Z,18.05
2019-02-19T20:51:21.830Z,17.89
2019-02-19T20:53:49.868Z,17.91
2019-02-19T20:56:17.582Z,18.06
2019-02-19T20:58:45.347Z,17.82
2019-02-19T21:01:13.071Z,17.92
2019-02-19T21:03:41.099Z,18.03
2019-02-19T21:06:10.322Z,17.98
2019-02-19T21:08:38.231Z,18.01
2019-02-19T21:11:05.983Z,18.11
2019-02-19T21:13:33.771Z,17.95
2019-02-19T21:16:01.555Z,17.81
2019-02-19T21:18:29.356Z,17.89
2019-02-19T21:20:57.266Z,17.89
2019-02-19T21:23:26.617Z,17.84
2019-02-19T21:26:05.057Z,17.85
2019-02-19T21:28:32.213Z,17.93
2019-02-19T21:31:00.031Z,17.87
2019-02-19T21:33:27.873Z,17.95
2019-02-19T21:35:57.882Z,18.01
2019-02-19T21:38:25.130Z,17.95
2019-02-19T21:40:52.895Z,17.82
2019-02-19T21:43:20.689Z,17.88
2019-02-19T21:45:48.427Z,17.96
2019-02-19T21:48:16.179Z,17.96
2019-02-19T21:50:43.919Z,17.97
2019-02-19T21:53:11.648Z,17.91
2019-02-19T21:55:39.457Z,17.96
2019-02-19T21:58:07.195Z,17.70
2019-02-19T22:00:34.932Z,18.00
2019-02-19T22:03:02.682Z,17.96
2019-02-19T22:05:31.466Z,17.91
2019-02-19T22:08:00.777Z,17.71
2019-02-19T22:10:30.375Z,18.01
2019-02-19T22:12:58.235Z,17.79
2019-02-19T22:15:25.982Z,17.91
2019-02-19T22:17:53.719Z,17.94
2019-02-19T22:20:45.115Z,18.04
2019-02-19T22:23:12.846Z,18.09
2019-02-19T22:25:40.573Z,17.90
2019-02-19T22:28:08.367Z,17.73
2019-02-19T22:30:36.119Z,17.80
2019-02-19T22:33:03.839Z,17.90
2019-02-19T22:35:40.790Z,17.89
2019-02-19T22:38:08.802Z,17.81
2019-02-19T22:40:36.617Z,17.89
2019-02-19T22:43:04.467Z,17.80
2019-02-19T22:45:32.482Z,18.08
2019-02-19T22:48:00.241Z,17.99
2019-02-19T22:50:27.979Z,17.94
2019-02-19T22:52:55.698Z,17.90
2019-02-19T22:55:35.261Z,18.04
2019-02-19T22:58:03.067Z,17.86
2019-02-19T23:00:50.627Z,17.87
2019-02-19T23:03:18.903Z,17.79
2019-02-19T23:05:47.065Z,17.85
2019-02-19T23:08:14.919Z,17.75
2019-02-19T23:10:42.667Z,17.76
2019-02-19T23:13:10.422Z,17.77
2019-02-19T23:15:38.295Z,17.81
2019-02-19T23:18:06.046Z,17.86
2019-02-19T23:20:33.920Z,17.92
2019-02-19T23:23:01.734Z,17.88
2019-02-19T23:25:29.535Z,17.72
2019-02-19T23:27:57.254Z,17.88
2019-02-19T23:30:25.264Z,17.87
2019-02-19T23:32:53.136Z,17.83
2019-02-19T23:35:48.134Z,17.86
2019-02-19T23:38:16.174Z,17.79
2019-02-19T23:40:43.919Z,17.88
2019-02-19T23:43:11.680Z,17.94
2019-02-19T23:45:39.409Z,17.90
2019-02-19T23:48:07.146Z,17.93
2019-02-19T23:50:34.871Z,17.85
2019-02-19T23:53:02.626Z,17.78
2019-02-19T23:55:31.474Z,17.76
2019-02-19T23:57:59.187Z,17.75
